Time;durP1;ratioP1;P1;durP2;ratioP2;P2;SDS_P1;SDS_P2;PMS_P1;PMS_P2;Temp;Humidity;BMP_temperature;BMP_pressure;BME280_temperature;BME280_humidity;BME280_pressure;Samples;Min_cycle;Max_cycle;Signal;HPM_P1;HPM_P2
2023/01/19 00:01:39;;;;;;;;;;;-1.00;99.90;;;;;;5058354;28;20019;-55
2023/01/19 00:04:06;;;;;;;;;;;-1.00;99.90;;;;;;5057284;28;20011;-55
2023/01/19 00:06:33;;;;;;;;;;;-1.10;99.90;;;;;;5057137;28;19927;-56
2023/01/19 00:09:00;;;;;;;;;;;-1.10;99.90;;;;;;5056847;28;19927;-56
2023/01/19 00:11:27;;;;;;;;;;;-1.10;99.90;;;;;;5057700;28;20014;-55
2023/01/19 00:13:55;;;;;;;;;;;-1.10;99.90;;;;;;5057897;28;19920;-55
2023/01/19 00:16:23;;;;;;;;;;;-1.20;99.90;;;;;;5057639;28;19931;-53
2023/01/19 00:18:51;;;;;;;;;;;-1.20;99.90;;;;;;5056441;28;20309;-55
2023/01/19 00:21:18;;;;;;;;;;;-1.20;99.90;;;;;;5057851;28;20011;-57
2023/01/19 00:23:47;;;;;;;;;;;-1.20;99.90;;;;;;5056562;28;19935;-56
2023/01/19 00:26:15;;;;;;;;;;;-1.20;99.90;;;;;;5057062;28;19920;-53
2023/01/19 00:28:42;;;;;;;;;;;-1.30;99.90;;;;;;5057460;28;19978;-52
2023/01/19 00:31:10;;;;;;;;;;;-1.30;99.90;;;;;;5057347;28;20305;-53
2023/01/19 00:33:37;;;;;;;;;;;-1.30;99.90;;;;;;5056840;28;20010;-54
2023/01/19 00:36:04;;;;;;;;;;;-1.30;99.90;;;;;;5057472;28;20001;-51
2023/01/19 00:38:31;;;;;;;;;;;-1.30;99.90;;;;;;5055425;28;20019;-55
2023/01/19 00:40:58;;;;;;;;;;;-1.30;99.90;;;;;;5055196;28;19921;-55
2023/01/19 00:43:25;;;;;;;;;;;-1.30;99.90;;;;;;5054764;28;20023;-54
2023/01/19 00:45:52;;;;;;;;;;;-1.40;99.90;;;;;;5054955;28;20055;-54
2023/01/19 00:48:21;;;;;;;;;;;-1.40;99.90;;;;;;5054581;28;20014;-54
2023/01/19 00:50:48;;;;;;;;;;;-1.40;99.90;;;;;;5054956;28;20385;-56
2023/01/19 00:53:15;;;;;;;;;;;-1.40;99.90;;;;;;5055545;28;19925;-56
2023/01/19 00:55:42;;;;;;;;;;;-1.40;99.90;;;;;;5055789;28;19920;-55
2023/01/19 00:58:09;;;;;;;;;;;-1.40;99.90;;;;;;5055311;28;20088;-56
2023/01/19 01:00:36;;;;;;;;;;;-1.40;99.90;;;;;;5056255;28;20317;-55
2023/01/19 01:03:03;;;;;;;;;;;-1.50;99.90;;;;;;5056659;28;20024;-55
2023/01/19 01:05:31;;;;;;;;;;;-1.50;99.90;;;;;;5054972;28;19921;-56
2023/01/19 01:07:58;;;;;;;;;;;-1.60;99.90;;;;;;5055017;28;19931;-55
2023/01/19 01:10:26;;;;;;;;;;;-1.60;99.90;;;;;;5055856;28;20012;-56
2023/01/19 01:12:53;;;;;;;;;;;-1.60;99.90;;;;;;5055307;28;19931;-55
2023/01/19 01:15:20;;;;;;;;;;;-1.60;99.90;;;;;;5056117;28;19954;-53
2023/01/19 01:17:47;;;;;;;;;;;-1.50;99.90;;;;;;5054418;28;19921;-55
2023/01/19 01:20:16;;;;;;;;;;;-1.50;99.90;;;;;;5055638;28;20015;-53
2023/01/19 01:22:46;;;;;;;;;;;-1.50;99.90;;;;;;5055584;28;19934;-54
2023/01/19 01:25:13;;;;;;;;;;;-1.50;99.90;;;;;;5055124;28;20027;-55
2023/01/19 01:27:40;;;;;;;;;;;-1.50;99.90;;;;;;5055627;28;20031;-52
2023/01/19 01:30:09;;;;;;;;;;;-1.60;99.90;;;;;;5055258;28;19920;-55
2023/01/19 01:32:36;;;;;;;;;;;-1.60;99.90;;;;;;5054587;28;20007;-56
2023/01/19 01:35:03;;;;;;;;;;;-1.60;99.90;;;;;;5055570;28;20287;-58
2023/01/19 01:37:30;;;;;;;;;;;-1.60;99.90;;;;;;5056010;28;20024;-56
2023/01/19 01:39:58;;;;;;;;;;;-1.60;99.90;;;;;;5056487;28;19927;-56
2023/01/19 01:42:27;;;;;;;;;;;-1.60;99.90;;;;;;5055451;28;20313;-56
2023/01/19 01:44:54;;;;;;;;;;;-1.60;99.90;;;;;;5055600;28;19960;-54
2023/01/19 01:47:26;;;;;;;;;;;-1.50;99.90;;;;;;5055680;28;19927;-54
2023/01/19 01:49:55;;;;;;;;;;;-1.50;99.90;;;;;;5053972;28;20401;-55
2023/01/19 01:52:23;;;;;;;;;;;-1.50;99.90;;;;;;5057977;28;20423;-57
2023/01/19 01:54:50;;;;;;;;;;;-1.50;99.90;;;;;;5074867;28;19920;-55
2023/01/19 01:57:18;;;;;;;;;;;-1.50;99.90;;;;;;5074547;28;20007;-55
2023/01/19 01:59:47;;;;;;;;;;;-1.50;99.90;;;;;;5074344;28;19920;-53
2023/01/19 02:05:03;;;;;;;;;;;-1.60;99.90;;;;;;5076328;28;19922;-55
2023/01/19 02:13:22;;;;;;;;;;;-1.60;99.90;;;;;;5078699;28;19973;-55
2023/01/19 02:15:49;;;;;;;;;;;-1.60;99.90;;;;;;5080149;28;19920;-56
2023/01/19 02:18:16;;;;;;;;;;;-1.60;99.90;;;;;;5079759;28;19920;-54
2023/01/19 02:20:47;;;;;;;;;;;-1.60;99.90;;;;;;5078329;28;20003;-54
2023/01/19 02:23:17;;;;;;;;;;;-1.60;99.90;;;;;;5079871;28;20006;-56
2023/01/19 02:25:45;;;;;;;;;;;-1.60;99.90;;;;;;5079939;28;19920;-55
2023/01/19 02:28:12;;;;;;;;;;;-1.60;99.90;;;;;;5079167;28;20468;-54
2023/01/19 02:30:41;;;;;;;;;;;-1.60;99.90;;;;;;5079096;28;20002;-54
2023/01/19 02:33:07;;;;;;;;;;;-1.50;99.90;;;;;;5079601;28;20019;-51
2023/01/19 02:35:37;;;;;;;;;;;-1.50;99.90;;;;;;5078829;28;19924;-54
2023/01/19 02:38:04;;;;;;;;;;;-1.60;99.90;;;;;;5077595;28;20012;-56
2023/01/19 02:40:31;;;;;;;;;;;-1.60;99.90;;;;;;5080024;28;20007;-54
2023/01/19 02:43:00;;;;;;;;;;;-1.60;99.90;;;;;;5079509;28;19920;-55
2023/01/19 02:45:27;;;;;;;;;;;-1.70;99.90;;;;;;5079509;28;19920;-55
2023/01/19 02:47:54;;;;;;;;;;;-1.70;99.90;;;;;;5079481;28;20363;-56
2023/01/19 02:50:40;;;;;;;;;;;-1.80;99.90;;;;;;5079581;28;20247;-56
2023/01/19 02:53:17;;;;;;;;;;;-1.80;99.90;;;;;;5079143;28;19966;-54
2023/01/19 02:55:48;;;;;;;;;;;-1.80;99.90;;;;;;5079583;28;20007;-55
2023/01/19 02:58:20;;;;;;;;;;;-1.70;99.90;;;;;;5079353;28;20007;-56
2023/01/19 03:00:52;;;;;;;;;;;-1.80;99.90;;;;;;5079549;28;19927;-55
2023/01/19 03:03:25;;;;;;;;;;;-1.70;99.90;;;;;;5079077;28;19924;-56
2023/01/19 03:05:56;;;;;;;;;;;-1.70;99.90;;;;;;5078908;28;19927;-56
2023/01/19 03:08:28;;;;;;;;;;;-1.70;99.90;;;;;;5079097;28;19924;-56
2023/01/19 03:11:00;;;;;;;;;;;-1.70;99.90;;;;;;5078107;28;19921;-55
2023/01/19 03:13:31;;;;;;;;;;;-1.70;99.90;;;;;;5078240;28;20010;-53
2023/01/19 03:16:00;;;;;;;;;;;-1.80;99.90;;;;;;5078779;28;20391;-56
2023/01/19 03:18:29;;;;;;;;;;;-1.80;99.90;;;;;;5077986;28;19921;-55
2023/01/19 03:20:58;;;;;;;;;;;-1.70;99.90;;;;;;5077979;28;19955;-55
2023/01/19 03:23:28;;;;;;;;;;;-1.80;99.90;;;;;;5077805;28;20054;-54
2023/01/19 03:25:56;;;;;;;;;;;-1.70;99.90;;;;;;5077989;28;20278;-56
2023/01/19 03:28:24;;;;;;;;;;;-1.70;99.90;;;;;;5077572;28;19974;-54
2023/01/19 03:30:55;;;;;;;;;;;-1.70;99.90;;;;;;5078535;28;20338;-56
2023/01/19 03:33:24;;;;;;;;;;;-1.70;99.90;;;;;;5078173;28;20015;-56
2023/01/19 03:35:53;;;;;;;;;;;-1.80;99.90;;;;;;5078854;28;19999;-56
2023/01/19 03:38:22;;;;;;;;;;;-1.80;99.90;;;;;;5076895;28;19920;-57
2023/01/19 03:40:49;;;;;;;;;;;-1.80;99.90;;;;;;5077679;28;19927;-56
2023/01/19 03:43:16;;;;;;;;;;;-1.80;99.90;;;;;;5077430;28;19925;-55
2023/01/19 03:45:44;;;;;;;;;;;-1.80;99.90;;;;;;5077527;28;20007;-56
2023/01/19 03:48:12;;;;;;;;;;;-1.80;99.90;;;;;;5077484;28;19943;-56
2023/01/19 03:50:39;;;;;;;;;;;-1.80;99.90;;;;;;5077254;28;20235;-55
2023/01/19 03:53:07;;;;;;;;;;;-1.80;99.90;;;;;;5078241;28;19920;-56
2023/01/19 03:55:34;;;;;;;;;;;-1.80;99.90;;;;;;5077619;28;20283;-55
2023/01/19 03:58:01;;;;;;;;;;;-1.80;99.90;;;;;;5076517;28;20395;-55
2023/01/19 04:00:29;;;;;;;;;;;-1.80;99.90;;;;;;5077923;28;19928;-53
2023/01/19 04:02:55;;;;;;;;;;;-1.80;99.90;;;;;;5077950;28;20308;-56
2023/01/19 04:05:24;;;;;;;;;;;-1.70;99.90;;;;;;5077944;28;19920;-54
2023/01/19 04:07:52;;;;;;;;;;;-1.80;99.90;;;;;;5078185;28;19978;-55
2023/01/19 04:10:19;;;;;;;;;;;-1.80;99.90;;;;;;5077888;28;19924;-59
2023/01/19 04:12:46;;;;;;;;;;;-1.80;99.90;;;;;;5077992;28;20474;-54
2023/01/19 04:15:13;;;;;;;;;;;-1.80;99.90;;;;;;5077075;28;19959;-51
2023/01/19 04:17:42;;;;;;;;;;;-1.80;99.90;;;;;;5077121;28;20291;-54
2023/01/19 04:20:09;;;;;;;;;;;-1.80;99.90;;;;;;5077708;28;19921;-56
2023/01/19 04:22:38;;;;;;;;;;;-1.90;99.90;;;;;;5076523;28;19920;-53
2023/01/19 04:25:06;;;;;;;;;;;-1.90;99.90;;;;;;5076310;28;20015;-51
2023/01/19 04:27:33;;;;;;;;;;;-1.90;99.90;;;;;;5075507;28;20007;-56
2023/01/19 04:30:00;;;;;;;;;;;-1.80;99.90;;;;;;5075670;28;20195;-55
2023/01/19 04:32:27;;;;;;;;;;;-1.70;99.90;;;;;;5076615;28;19924;-56
2023/01/19 04:34:54;;;;;;;;;;;-1.70;99.90;;;;;;5076306;28;20231;-54
2023/01/19 04:37:21;;;;;;;;;;;-1.70;99.90;;;;;;5076147;28;19927;-53
2023/01/19 04:39:49;;;;;;;;;;;-1.70;99.90;;;;;;5077401;28;20011;-56
2023/01/19 04:42:16;;;;;;;;;;;-1.80;99.90;;;;;;5075412;28;20510;-56
2023/01/19 04:44:43;;;;;;;;;;;-1.80;99.90;;;;;;5076767;28;19920;-55
2023/01/19 04:47:10;;;;;;;;;;;-1.80;99.90;;;;;;5069725;28;19927;-56
2023/01/19 04:49:37;;;;;;;;;;;-1.80;99.90;;;;;;5056933;28;19921;-55
2023/01/19 04:52:04;;;;;;;;;;;-1.90;99.90;;;;;;5057555;28;20206;-56
2023/01/19 04:54:31;;;;;;;;;;;-1.90;99.90;;;;;;5055982;28;19942;-57
2023/01/19 04:56:59;;;;;;;;;;;-1.90;99.90;;;;;;5060389;28;19924;-54
2023/01/19 04:59:26;;;;;;;;;;;-1.90;99.90;;;;;;5072428;28;19995;-56
2023/01/19 05:01:55;;;;;;;;;;;-1.90;99.90;;;;;;5075885;28;19999;-56
2023/01/19 05:04:22;;;;;;;;;;;-1.90;99.90;;;;;;5076403;28;19920;-56
2023/01/19 05:06:49;;;;;;;;;;;-1.80;99.90;;;;;;5057978;28;19963;-58
2023/01/19 05:09:15;;;;;;;;;;;-1.80;99.90;;;;;;5056696;28;19999;-58
2023/01/19 05:11:42;;;;;;;;;;;-1.80;99.90;;;;;;5056599;28;19920;-58
2023/01/19 05:14:11;;;;;;;;;;;-1.80;99.90;;;;;;5056279;28;20364;-58
2023/01/19 05:16:38;;;;;;;;;;;-1.90;99.90;;;;;;5057291;28;19971;-58
2023/01/19 05:19:04;;;;;;;;;;;-1.90;99.90;;;;;;5056609;28;19921;-58
2023/01/19 05:21:31;;;;;;;;;;;-1.90;99.90;;;;;;5056975;28;20562;-58
2023/01/19 05:23:59;;;;;;;;;;;-1.90;99.90;;;;;;5056753;28;20012;-58
2023/01/19 05:26:25;;;;;;;;;;;-2.00;99.90;;;;;;5056646;28;20007;-58
2023/01/19 05:28:53;;;;;;;;;;;-2.00;99.90;;;;;;5055484;28;19921;-58
2023/01/19 05:31:28;;;;;;;;;;;-2.00;99.90;;;;;;5056120;28;20003;-59
2023/01/19 05:33:55;;;;;;;;;;;-1.80;99.90;;;;;;5056182;28;19941;-58
2023/01/19 05:36:22;;;;;;;;;;;-1.90;99.90;;;;;;5056481;28;20313;-59
2023/01/19 05:38:49;;;;;;;;;;;-1.90;99.90;;;;;;5056091;28;19921;-59
2023/01/19 05:41:16;;;;;;;;;;;-1.80;99.90;;;;;;5056231;28;20317;-59
2023/01/19 05:43:43;;;;;;;;;;;-1.90;99.90;;;;;;5056202;28;19947;-59
2023/01/19 05:46:10;;;;;;;;;;;-1.90;99.90;;;;;;5056451;28;19924;-59
2023/01/19 05:48:38;;;;;;;;;;;-2.00;99.90;;;;;;5056383;28;19928;-58
2023/01/19 05:51:06;;;;;;;;;;;-2.00;99.90;;;;;;5055754;28;20360;-58
2023/01/19 05:53:32;;;;;;;;;;;-1.90;99.90;;;;;;5056322;28;20316;-59
2023/01/19 05:56:00;;;;;;;;;;;-1.90;99.90;;;;;;5055859;28;20007;-58
2023/01/19 05:58:27;;;;;;;;;;;-1.80;99.90;;;;;;5055413;28;20015;-58
2023/01/19 06:00:54;;;;;;;;;;;-1.80;99.90;;;;;;5055213;28;19928;-59
2023/01/19 06:03:21;;;;;;;;;;;-1.80;99.90;;;;;;5054760;28;19943;-59
2023/01/19 06:05:49;;;;;;;;;;;-1.80;99.90;;;;;;5055036;28;20007;-58
2023/01/19 06:08:16;;;;;;;;;;;-1.80;99.90;;;;;;5055764;28;19982;-58
2023/01/19 06:10:43;;;;;;;;;;;-1.80;99.90;;;;;;5054789;28;19942;-58
2023/01/19 06:13:10;;;;;;;;;;;-1.80;99.90;;;;;;5054601;28;19975;-58
2023/01/19 06:15:37;;;;;;;;;;;-1.80;99.90;;;;;;5053326;28;19921;-58
2023/01/19 06:18:04;;;;;;;;;;;-1.80;99.90;;;;;;5053046;28;19936;-59
2023/01/19 06:20:31;;;;;;;;;;;-1.90;99.90;;;;;;5053769;28;19921;-59
2023/01/19 06:22:59;;;;;;;;;;;-1.80;99.90;;;;;;5054046;28;20043;-59
2023/01/19 06:25:26;;;;;;;;;;;-1.80;99.90;;;;;;5053789;28;20290;-59
2023/01/19 06:27:53;;;;;;;;;;;-1.90;99.90;;;;;;5054122;28;19920;-59
2023/01/19 06:30:20;;;;;;;;;;;-1.90;99.90;;;;;;5053708;28;19983;-59
2023/01/19 06:32:47;;;;;;;;;;;-1.80;99.90;;;;;;5054057;28;19959;-59
2023/01/19 06:35:14;;;;;;;;;;;-1.80;99.90;;;;;;5053811;28;19970;-59
2023/01/19 06:37:41;;;;;;;;;;;-1.90;99.90;;;;;;5052903;28;19920;-58
2023/01/19 06:40:10;;;;;;;;;;;-1.90;99.90;;;;;;5054005;28;20364;-58
2023/01/19 06:42:37;;;;;;;;;;;-1.90;99.90;;;;;;5053493;28;20011;-59
2023/01/19 06:45:04;;;;;;;;;;;-2.00;99.90;;;;;;5054787;28;19920;-58
2023/01/19 06:47:33;;;;;;;;;;;-1.90;99.90;;;;;;5054739;28;19920;-58
2023/01/19 06:50:00;;;;;;;;;;;-2.00;99.90;;;;;;5055001;28;20291;-59
2023/01/19 06:52:27;;;;;;;;;;;-1.90;99.90;;;;;;5057687;28;19960;-58
2023/01/19 06:54:54;;;;;;;;;;;-1.90;99.90;;;;;;5057431;28;20011;-58
2023/01/19 06:57:24;;;;;;;;;;;-2.00;99.90;;;;;;5057850;28;20388;-58
2023/01/19 06:59:51;;;;;;;;;;;-2.00;99.90;;;;;;5056953;28;19924;-58
2023/01/19 07:02:21;;;;;;;;;;;-1.90;99.90;;;;;;5057138;28;20015;-59
2023/01/19 07:04:48;;;;;;;;;;;-1.90;99.90;;;;;;5057944;28;19987;-59
2023/01/19 07:07:16;;;;;;;;;;;-1.90;99.90;;;;;;5056712;28;19931;-59
2023/01/19 07:09:43;;;;;;;;;;;-1.90;99.90;;;;;;5058157;28;19947;-59
2023/01/19 07:12:10;;;;;;;;;;;-1.80;99.90;;;;;;5061015;28;20302;-58
2023/01/19 07:14:38;;;;;;;;;;;-1.80;99.90;;;;;;5062175;28;20003;-58
2023/01/19 07:17:05;;;;;;;;;;;-1.70;99.90;;;;;;5073509;28;20384;-58
2023/01/19 07:19:33;;;;;;;;;;;-1.70;99.90;;;;;;5066226;28;20047;-59
2023/01/19 07:22:01;;;;;;;;;;;-1.70;99.90;;;;;;5074421;28;19920;-59
2023/01/19 07:24:29;;;;;;;;;;;-1.60;99.90;;;;;;5072526;28;19921;-59
2023/01/19 07:26:56;;;;;;;;;;;-1.60;99.90;;;;;;5075840;28;19920;-60
2023/01/19 07:29:23;;;;;;;;;;;-1.60;99.90;;;;;;5076375;28;20011;-59
2023/01/19 07:31:53;;;;;;;;;;;-1.60;99.90;;;;;;5075266;28;20001;-58
2023/01/19 07:34:20;;;;;;;;;;;-1.60;99.90;;;;;;5075766;28;20276;-58
2023/01/19 07:36:47;;;;;;;;;;;-1.60;99.90;;;;;;5074733;28;20007;-56
2023/01/19 07:39:14;;;;;;;;;;;-1.50;99.90;;;;;;5075935;28;20019;-57
2023/01/19 07:41:41;;;;;;;;;;;-1.50;99.90;;;;;;5076501;28;19963;-57
2023/01/19 07:44:08;;;;;;;;;;;-1.50;99.90;;;;;;5076419;28;19921;-57
2023/01/19 07:46:35;;;;;;;;;;;-1.50;99.90;;;;;;5075053;28;20240;-58
2023/01/19 07:49:03;;;;;;;;;;;-1.60;99.90;;;;;;5075483;28;19920;-59
2023/01/19 07:51:30;;;;;;;;;;;-1.60;99.90;;;;;;5075628;28;19920;-55
2023/01/19 07:53:58;;;;;;;;;;;-1.60;99.90;;;;;;5073123;28;19920;-58
2023/01/19 07:56:26;;;;;;;;;;;-1.50;99.90;;;;;;5074724;28;19928;-58
2023/01/19 07:58:53;;;;;;;;;;;-1.40;99.90;;;;;;5076423;28;20366;-56
2023/01/19 08:01:20;;;;;;;;;;;-1.30;99.90;;;;;;5075377;28;19921;-55
2023/01/19 08:03:47;;;;;;;;;;;-1.40;99.90;;;;;;5073104;28;20020;-57
2023/01/19 08:06:19;;;;;;;;;;;-1.30;99.90;;;;;;5074614;28;19927;-57
2023/01/19 08:08:46;;;;;;;;;;;-1.40;99.90;;;;;;5073970;28;20015;-57
2023/01/19 08:11:14;;;;;;;;;;;-1.40;99.90;;;;;;5075598;28;19920;-57
2023/01/19 08:13:41;;;;;;;;;;;-1.40;99.90;;;;;;5072352;28;20007;-56
2023/01/19 08:16:08;;;;;;;;;;;-1.30;99.90;;;;;;5055389;28;20014;-57
2023/01/19 08:18:35;;;;;;;;;;;-1.10;99.90;;;;;;5055006;28;20384;-57
2023/01/19 08:21:02;;;;;;;;;;;-1.00;99.90;;;;;;5056374;28;20010;-58
2023/01/19 08:23:30;;;;;;;;;;;-0.90;99.90;;;;;;5055454;28;19924;-57
2023/01/19 08:25:57;;;;;;;;;;;-0.80;99.90;;;;;;5054773;28;19927;-57
2023/01/19 08:28:24;;;;;;;;;;;-0.70;99.90;;;;;;5055015;28;20310;-60
2023/01/19 08:30:54;;;;;;;;;;;-0.60;99.90;;;;;;5055503;28;19927;-55
2023/01/19 08:33:21;;;;;;;;;;;-0.50;99.90;;;;;;5055724;28;19928;-58
2023/01/19 08:35:49;;;;;;;;;;;-0.40;99.90;;;;;;5055144;28;20515;-59
2023/01/19 08:38:16;;;;;;;;;;;-0.50;99.90;;;;;;5054293;28;20036;-57
2023/01/19 08:40:45;;;;;;;;;;;-0.50;99.90;;;;;;5055370;28;19936;-58
2023/01/19 08:43:13;;;;;;;;;;;-0.50;99.90;;;;;;5055159;28;20551;-58
2023/01/19 08:45:41;;;;;;;;;;;-0.50;99.90;;;;;;5054828;28;20015;-58
2023/01/19 08:48:09;;;;;;;;;;;-0.50;99.90;;;;;;5054735;28;19928;-58
2023/01/19 08:50:38;;;;;;;;;;;-0.40;99.90;;;;;;5056160;28;19924;-59
2023/01/19 08:53:05;;;;;;;;;;;-0.30;99.90;;;;;;5075013;28;19920;-58
2023/01/19 08:55:33;;;;;;;;;;;-0.30;99.90;;;;;;5075174;28;20039;-58
2023/01/19 08:58:02;;;;;;;;;;;-0.20;99.90;;;;;;5075578;28;19920;-58
2023/01/19 09:00:32;;;;;;;;;;;-0.20;99.90;;;;;;5059663;28;19990;-59
2023/01/19 09:03:00;;;;;;;;;;;-0.20;99.90;;;;;;5055087;28;19921;-59
2023/01/19 09:05:27;;;;;;;;;;;-0.20;99.90;;;;;;5054948;28;19968;-59
2023/01/19 09:07:54;;;;;;;;;;;0.00;99.90;;;;;;5053895;28;20601;-59
2023/01/19 09:10:21;;;;;;;;;;;0.10;99.90;;;;;;5054904;28;20216;-58
2023/01/19 09:12:49;;;;;;;;;;;0.20;99.90;;;;;;5055557;28;20213;-59
2023/01/19 09:15:17;;;;;;;;;;;0.20;99.90;;;;;;5052868;28;20012;-59
2023/01/19 09:17:44;;;;;;;;;;;0.30;99.90;;;;;;5055986;28;20011;-58
2023/01/19 09:20:12;;;;;;;;;;;0.30;99.90;;;;;;5055273;28;20012;-58
2023/01/19 09:22:39;;;;;;;;;;;0.50;99.90;;;;;;5054831;28;20008;-59
2023/01/19 09:25:07;;;;;;;;;;;0.70;99.90;;;;;;5053810;28;20015;-57
2023/01/19 09:27:34;;;;;;;;;;;0.80;99.90;;;;;;5052918;28;20296;-57
2023/01/19 09:30:01;;;;;;;;;;;0.90;99.90;;;;;;5054119;28;20331;-56
2023/01/19 09:32:30;;;;;;;;;;;0.90;99.90;;;;;;5062975;28;20239;-56
2023/01/19 09:34:56;;;;;;;;;;;1.00;99.90;;;;;;5072802;28;19951;-56
2023/01/19 09:37:23;;;;;;;;;;;1.00;99.90;;;;;;5073951;28;19925;-56
2023/01/19 09:39:50;;;;;;;;;;;1.00;99.90;;;;;;5074916;28;19999;-60
2023/01/19 09:42:20;;;;;;;;;;;1.00;99.90;;;;;;5074671;28;19921;-57
2023/01/19 09:44:47;;;;;;;;;;;1.00;99.90;;;;;;5072897;28;19945;-57
2023/01/19 09:47:15;;;;;;;;;;;1.10;99.90;;;;;;5073704;28;20007;-57
2023/01/19 09:49:45;;;;;;;;;;;1.10;99.90;;;;;;5073931;28;19928;-56
2023/01/19 09:52:13;;;;;;;;;;;1.30;99.90;;;;;;5073064;28;20536;-57
2023/01/19 09:54:43;;;;;;;;;;;1.20;99.90;;;;;;5073089;28;20019;-54
2023/01/19 09:57:10;;;;;;;;;;;1.20;99.90;;;;;;5072918;28;19924;-56
2023/01/19 09:59:37;;;;;;;;;;;1.20;99.90;;;;;;5073457;28;20011;-57
2023/01/19 10:02:18;;;;;;;;;;;1.20;99.90;;;;;;5073452;28;20014;-57
2023/01/19 10:04:51;;;;;;;;;;;1.40;99.90;;;;;;5074826;28;20011;-56
2023/01/19 10:07:23;;;;;;;;;;;1.50;99.90;;;;;;5073082;28;20014;-56
2023/01/19 10:10:02;;;;;;;;;;;1.50;99.90;;;;;;5073476;28;19939;-54
2023/01/19 10:12:34;;;;;;;;;;;1.50;99.90;;;;;;5074991;28;19920;-56
2023/01/19 10:15:05;;;;;;;;;;;1.40;99.90;;;;;;5075057;28;19921;-56
2023/01/19 10:17:38;;;;;;;;;;;1.40;99.90;;;;;;5075305;28;19920;-56
2023/01/19 10:20:13;;;;;;;;;;;1.50;99.90;;;;;;5075030;28;19924;-57
2023/01/19 10:22:43;;;;;;;;;;;1.50;99.90;;;;;;5073989;28;19920;-56
2023/01/19 10:25:14;;;;;;;;;;;1.50;99.90;;;;;;5080572;28;19946;-56
2023/01/19 10:27:41;;;;;;;;;;;1.50;99.90;;;;;;5076332;28;19956;-58
2023/01/19 10:30:09;;;;;;;;;;;1.60;99.90;;;;;;5076060;28;19936;-57
2023/01/19 10:32:36;;;;;;;;;;;1.50;99.90;;;;;;5077488;28;20011;-57
2023/01/19 10:35:12;;;;;;;;;;;1.50;99.90;;;;;;5095746;28;19924;-57
2023/01/19 10:37:43;;;;;;;;;;;1.50;99.90;;;;;;5059051;28;20003;-56
2023/01/19 10:40:18;;;;;;;;;;;1.60;99.90;;;;;;5058942;28;19943;-55
2023/01/19 10:42:45;;;;;;;;;;;1.80;99.90;;;;;;5077375;28;19921;-57
2023/01/19 10:45:14;;;;;;;;;;;1.70;99.90;;;;;;5077346;28;20003;-56
2023/01/19 10:47:42;;;;;;;;;;;1.60;99.90;;;;;;5076624;28;19920;-59
2023/01/19 10:50:22;;;;;;;;;;;1.60;99.90;;;;;;5077432;28;19927;-58
2023/01/19 10:52:51;;;;;;;;;;;1.70;99.90;;;;;;5072277;28;19921;-58
2023/01/19 10:55:26;;;;;;;;;;;1.60;99.90;;;;;;5075753;28;19976;-55
2023/01/19 10:57:53;;;;;;;;;;;1.60;99.90;;;;;;5077740;28;19999;-55
2023/01/19 11:00:31;;;;;;;;;;;1.70;99.90;;;;;;5077907;28;20003;-54
2023/01/19 11:02:58;;;;;;;;;;;1.60;99.90;;;;;;5076477;28;19946;-55
2023/01/19 11:05:26;;;;;;;;;;;1.60;99.90;;;;;;5076759;28;20035;-54
2023/01/19 11:07:55;;;;;;;;;;;1.60;99.90;;;;;;5076177;28;20023;-57
2023/01/19 11:10:23;;;;;;;;;;;1.70;99.90;;;;;;5075556;28;19946;-56
2023/01/19 11:12:59;;;;;;;;;;;1.60;99.90;;;;;;5075550;28;19920;-54
2023/01/19 11:15:29;;;;;;;;;;;1.60;99.90;;;;;;5076685;28;19927;-54
2023/01/19 11:17:56;;;;;;;;;;;1.50;99.90;;;;;;5076217;28;19920;-56
2023/01/19 11:20:24;;;;;;;;;;;1.50;99.90;;;;;;5076386;28;19966;-54
2023/01/19 11:23:05;;;;;;;;;;;1.40;99.90;;;;;;5075328;28;20011;-56
2023/01/19 11:25:33;;;;;;;;;;;1.50;99.90;;;;;;5075413;28;19920;-56
2023/01/19 11:28:00;;;;;;;;;;;1.60;99.90;;;;;;5076402;28;20006;-55
2023/01/19 11:30:27;;;;;;;;;;;1.60;99.90;;;;;;5075544;28;20324;-55
2023/01/19 11:32:55;;;;;;;;;;;1.60;99.90;;;;;;5074676;28;20311;-56
2023/01/19 11:35:33;;;;;;;;;;;1.60;99.90;;;;;;5075003;28;19920;-54
2023/01/19 11:38:13;;;;;;;;;;;1.70;99.90;;;;;;5074701;28;20005;-53
2023/01/19 11:40:41;;;;;;;;;;;1.80;99.90;;;;;;5073971;28;19934;-56
2023/01/19 11:43:11;;;;;;;;;;;1.80;99.90;;;;;;5073931;28;19967;-56
2023/01/19 11:45:38;;;;;;;;;;;1.90;99.90;;;;;;5073694;28;19966;-55
2023/01/19 11:48:07;;;;;;;;;;;2.00;99.90;;;;;;5075477;28;20414;-53
2023/01/19 11:50:38;;;;;;;;;;;2.00;99.90;;;;;;5075390;28;19952;-57
2023/01/19 11:53:07;;;;;;;;;;;2.00;99.90;;;;;;5075646;28;20544;-54
2023/01/19 11:55:38;;;;;;;;;;;2.10;99.90;;;;;;5076587;28;19924;-56
2023/01/19 11:58:05;;;;;;;;;;;2.10;99.90;;;;;;5074981;28;19947;-53
2023/01/19 12:00:35;;;;;;;;;;;2.20;99.90;;;;;;5075287;28;19960;-56
2023/01/19 12:03:04;;;;;;;;;;;2.20;99.90;;;;;;5076357;28;19943;-56
2023/01/19 12:05:32;;;;;;;;;;;2.10;99.90;;;;;;5075257;28;19921;-56
2023/01/19 12:08:01;;;;;;;;;;;2.30;99.90;;;;;;5074382;28;20014;-55
2023/01/19 12:10:29;;;;;;;;;;;2.20;99.90;;;;;;5075220;28;19925;-55
2023/01/19 12:12:57;;;;;;;;;;;2.20;99.90;;;;;;5075406;28;20019;-56
2023/01/19 12:15:27;;;;;;;;;;;2.20;99.90;;;;;;5074709;28;19924;-57
2023/01/19 12:17:57;;;;;;;;;;;2.20;99.90;;;;;;5075161;28;19920;-57
2023/01/19 12:20:26;;;;;;;;;;;2.20;99.90;;;;;;5074638;28;19927;-56
2023/01/19 12:22:59;;;;;;;;;;;2.30;99.90;;;;;;5074469;28;19920;-57
2023/01/19 12:25:29;;;;;;;;;;;2.30;99.90;;;;;;5076077;28;20010;-55
2023/01/19 12:27:58;;;;;;;;;;;2.30;99.90;;;;;;5074664;28;20006;-57
2023/01/19 12:30:26;;;;;;;;;;;2.30;99.90;;;;;;5074474;28;19928;-54
2023/01/19 12:33:15;;;;;;;;;;;2.40;99.90;;;;;;5074202;28;20014;-56
2023/01/19 12:35:56;;;;;;;;;;;2.40;99.90;;;;;;5074190;28;20050;-56
2023/01/19 12:38:24;;;;;;;;;;;2.40;99.90;;;;;;5074044;28;19921;-56
2023/01/19 12:41:05;;;;;;;;;;;2.40;99.90;;;;;;5072904;28;19927;-55
2023/01/19 12:43:34;;;;;;;;;;;2.40;99.90;;;;;;5070936;28;19924;-55
2023/01/19 12:46:01;;;;;;;;;;;2.40;99.90;;;;;;5069474;28;20520;-56
2023/01/19 12:48:31;;;;;;;;;;;2.40;99.90;;;;;;5073445;28;19920;-54
2023/01/19 12:50:58;;;;;;;;;;;2.50;99.90;;;;;;5074166;28;20034;-58
2023/01/19 12:53:25;;;;;;;;;;;2.50;99.90;;;;;;5054723;28;20335;-55
2023/01/19 12:55:58;;;;;;;;;;;2.40;99.90;;;;;;5054508;28;20229;-55
2023/01/19 12:58:25;;;;;;;;;;;2.30;99.90;;;;;;5054118;28;19925;-55
2023/01/19 13:01:12;;;;;;;;;;;2.40;99.90;;;;;;5055072;28;20395;-55
2023/01/19 13:03:44;;;;;;;;;;;2.40;99.90;;;;;;5056158;28;19974;-55
2023/01/19 13:06:11;;;;;;;;;;;2.30;99.90;;;;;;5053134;28;19943;-56
2023/01/19 13:08:58;;;;;;;;;;;2.30;99.90;;;;;;5054104;28;19960;-55
2023/01/19 13:11:25;;;;;;;;;;;2.20;99.90;;;;;;5048497;28;20010;-56
2023/01/19 13:14:26;;;;;;;;;;;2.30;99.90;;;;;;5053786;28;19952;-53
2023/01/19 13:17:01;;;;;;;;;;;2.40;99.90;;;;;;5054497;28;20313;-57
2023/01/19 13:19:35;;;;;;;;;;;2.40;99.90;;;;;;5054423;28;20256;-56
2023/01/19 13:22:29;;;;;;;;;;;2.50;99.90;;;;;;5054262;28;19983;-54
2023/01/19 13:25:06;;;;;;;;;;;2.50;99.90;;;;;;5053815;28;20007;-56
2023/01/19 13:27:34;;;;;;;;;;;2.50;99.90;;;;;;5054443;28;20021;-54
2023/01/19 13:30:01;;;;;;;;;;;2.50;99.90;;;;;;5053588;28;19987;-57
2023/01/19 13:32:30;;;;;;;;;;;2.70;99.90;;;;;;5053762;28;19924;-56
2023/01/19 13:34:57;;;;;;;;;;;2.80;99.90;;;;;;5055089;28;19921;-56
2023/01/19 13:37:26;;;;;;;;;;;3.00;99.90;;;;;;5053729;28;19925;-56
2023/01/19 13:39:54;;;;;;;;;;;3.10;99.90;;;;;;5053362;28;19921;-56
2023/01/19 13:42:28;;;;;;;;;;;3.20;99.90;;;;;;5053454;28;20347;-56
2023/01/19 13:44:57;;;;;;;;;;;3.10;99.90;;;;;;5054922;28;19967;-56
2023/01/19 13:47:26;;;;;;;;;;;2.90;99.90;;;;;;5052737;28;20011;-56
2023/01/19 13:49:56;;;;;;;;;;;2.70;99.90;;;;;;5051458;28;20011;-56
2023/01/19 13:52:23;;;;;;;;;;;2.70;99.90;;;;;;5050767;28;20011;-57
2023/01/19 13:54:51;;;;;;;;;;;2.60;99.90;;;;;;5051572;28;19971;-56
2023/01/19 13:57:22;;;;;;;;;;;2.50;99.90;;;;;;5051072;28;20003;-57
2023/01/19 14:00:00;;;;;;;;;;;2.70;99.90;;;;;;5050604;28;20019;-57
2023/01/19 14:02:27;;;;;;;;;;;2.60;99.90;;;;;;5054608;28;19956;-56
2023/01/19 14:04:56;;;;;;;;;;;2.70;99.90;;;;;;5057038;28;20269;-57
2023/01/19 14:07:25;;;;;;;;;;;2.60;99.90;;;;;;5055828;28;19928;-53
2023/01/19 14:10:01;;;;;;;;;;;2.70;99.90;;;;;;5054890;28;19920;-55
2023/01/19 14:12:28;;;;;;;;;;;2.60;99.90;;;;;;5053693;28;20019;-56
2023/01/19 14:14:55;;;;;;;;;;;2.60;99.90;;;;;;5055078;28;20285;-57
2023/01/19 14:17:26;;;;;;;;;;;2.50;99.90;;;;;;5056454;28;19927;-54
2023/01/19 14:19:53;;;;;;;;;;;2.40;99.90;;;;;;5057027;28;20012;-57
2023/01/19 14:22:22;;;;;;;;;;;2.30;99.90;;;;;;5058093;28;20360;-57
2023/01/19 14:24:49;;;;;;;;;;;2.30;99.90;;;;;;5055806;28;20328;-57
2023/01/19 14:27:18;;;;;;;;;;;2.30;99.90;;;;;;5063917;28;20393;-56
2023/01/19 14:29:47;;;;;;;;;;;2.40;99.90;;;;;;5076472;28;19927;-57
2023/01/19 14:32:15;;;;;;;;;;;2.50;99.90;;;;;;5064959;28;19928;-57
2023/01/19 14:34:43;;;;;;;;;;;2.60;99.90;;;;;;5055716;28;19921;-58
2023/01/19 14:37:18;;;;;;;;;;;2.60;99.90;;;;;;5056779;28;20447;-56
2023/01/19 14:39:48;;;;;;;;;;;2.50;99.90;;;;;;5060300;28;19925;-56